sensor_id;sensor_type;location;lat;lon;timestamp;pressure;altitude;pressure_sealevel;temperature;humidity
30302;BME280;17111;52.130;5.028;2024-03-06T00:01:16;101903.28;;;15.82;55.30
30302;BME280;17111;52.130;5.028;2024-03-06T00:03:43;101914.81;;;15.83;54.03
30302;BME280;17111;52.130;5.028;2024-03-06T00:06:09;101916.53;;;15.84;54.96
30302;BME280;17111;52.130;5.028;2024-03-06T00:08:36;101920.16;;;15.83;55.07
30302;BME280;17111;52.130;5.028;2024-03-06T00:11:03;101925.50;;;15.83;53.96
30302;BME280;17111;52.130;5.028;2024-03-06T00:13:30;101927.34;;;15.82;54.99
30302;BME280;17111;52.130;5.028;2024-03-06T00:15:57;101936.22;;;15.83;54.98
30302;BME280;17111;52.130;5.028;2024-03-06T00:18:24;101936.22;;;15.83;54.25
30302;BME280;17111;52.130;5.028;2024-03-06T00:20:50;101937.19;;;15.82;54.08
30302;BME280;17111;52.130;5.028;2024-03-06T00:23:17;101940.72;;;15.82;54.16
30302;BME280;17111;52.130;5.028;2024-03-06T00:25:43;101940.84;;;15.81;54.39
30302;BME280;17111;52.130;5.028;2024-03-06T00:28:10;101943.50;;;15.81;54.90
30302;BME280;17111;52.130;5.028;2024-03-06T00:30:37;101944.34;;;15.81;55.01
30302;BME280;17111;52.130;5.028;2024-03-06T00:33:03;101942.53;;;15.82;54.77
30302;BME280;17111;52.130;5.028;2024-03-06T00:35:30;101934.50;;;15.82;54.21
30302;BME280;17111;52.130;5.028;2024-03-06T00:37:56;101945.19;;;15.82;55.04
30302;BME280;17111;52.130;5.028;2024-03-06T00:40:23;101938.03;;;15.82;55.13
30302;BME280;17111;52.130;5.028;2024-03-06T00:42:50;101945.19;;;15.82;54.42
30302;BME280;17111;52.130;5.028;2024-03-06T00:45:16;101954.06;;;15.82;54.27
30302;BME280;17111;52.130;5.028;2024-03-06T00:47:43;101948.00;;;15.80;54.41
30302;BME280;17111;52.130;5.028;2024-03-06T00:50:10;101952.38;;;15.81;54.42
30302;BME280;17111;52.130;5.028;2024-03-06T00:52:37;101948.84;;;15.81;54.69
30302;BME280;17111;52.130;5.028;2024-03-06T00:55:04;101951.53;;;15.81;54.91
30302;BME280;17111;52.130;5.028;2024-03-06T00:57:31;101948.84;;;15.81;54.94
30302;BME280;17111;52.130;5.028;2024-03-06T00:59:58;101953.22;;;15.82;54.02
30302;BME280;17111;52.130;5.028;2024-03-06T01:02:24;101956.00;;;15.80;55.21
30302;BME280;17111;52.130;5.028;2024-03-06T01:04:51;101956.00;;;15.80;54.75
30302;BME280;17111;52.130;5.028;2024-03-06T01:07:18;101951.53;;;15.81;55.08
30302;BME280;17111;52.130;5.028;2024-03-06T01:09:45;101959.53;;;15.81;54.78
30302;BME280;17111;52.130;5.028;2024-03-06T01:12:11;101960.38;;;15.81;54.91
30302;BME280;17111;52.130;5.028;2024-03-06T01:14:38;101965.81;;;15.79;54.12
30302;BME280;17111;52.130;5.028;2024-03-06T01:17:06;101961.38;;;15.80;54.44
30302;BME280;17111;52.130;5.028;2024-03-06T01:19:33;101968.50;;;15.79;55.04
30302;BME280;17111;52.130;5.028;2024-03-06T01:21:59;101963.16;;;15.79;55.18
30302;BME280;17111;52.130;5.028;2024-03-06T01:24:26;101971.19;;;15.79;54.90
30302;BME280;17111;52.130;5.028;2024-03-06T01:26:53;101967.56;;;15.81;55.13
30302;BME280;17111;52.130;5.028;2024-03-06T01:29:19;101966.72;;;15.80;55.00
30302;BME280;17111;52.130;5.028;2024-03-06T01:31:46;101964.03;;;15.80;55.08
30302;BME280;17111;52.130;5.028;2024-03-06T01:34:13;101972.16;;;15.78;54.59
30302;BME280;17111;52.130;5.028;2024-03-06T01:36:40;101973.84;;;15.79;54.79
30302;BME280;17111;52.130;5.028;2024-03-06T01:39:06;101968.50;;;15.79;54.95
30302;BME280;17111;52.130;5.028;2024-03-06T01:41:33;101973.00;;;15.79;54.92
30302;BME280;17111;52.130;5.028;2024-03-06T01:43:59;101973.00;;;15.79;55.26
30302;BME280;17111;52.130;5.028;2024-03-06T01:46:26;101973.97;;;15.78;55.02
30302;BME280;17111;52.130;5.028;2024-03-06T01:48:53;101974.81;;;15.78;55.03
30302;BME280;17111;52.130;5.028;2024-03-06T01:51:19;101973.13;;;15.77;54.33
30302;BME280;17111;52.130;5.028;2024-03-06T01:53:46;101973.97;;;15.78;54.17
30302;BME280;17111;52.130;5.028;2024-03-06T01:56:13;101981.00;;;15.79;54.34
30302;BME280;17111;52.130;5.028;2024-03-06T01:58:45;101978.47;;;15.77;54.53
30302;BME280;17111;52.130;5.028;2024-03-06T02:01:13;101981.13;;;15.77;55.01
30302;BME280;17111;52.130;5.028;2024-03-06T02:03:43;101983.81;;;15.77;55.05
30302;BME280;17111;52.130;5.028;2024-03-06T02:06:10;101980.16;;;15.78;54.49
30302;BME280;17111;52.130;5.028;2024-03-06T02:08:38;101982.97;;;15.77;55.11
30302;BME280;17111;52.130;5.028;2024-03-06T02:11:04;101990.88;;;15.78;54.29
30302;BME280;17111;52.130;5.028;2024-03-06T02:13:33;101990.88;;;15.78;54.89
30302;BME280;17111;52.130;5.028;2024-03-06T02:16:00;101991.84;;;15.77;54.01
30302;BME280;17111;52.130;5.028;2024-03-06T02:18:27;101982.13;;;15.76;54.98
30302;BME280;17111;52.130;5.028;2024-03-06T02:20:54;101990.88;;;15.78;54.37
30302;BME280;17111;52.130;5.028;2024-03-06T02:23:20;101988.31;;;15.77;54.23
30302;BME280;17111;52.130;5.028;2024-03-06T02:25:48;101988.31;;;15.77;55.23
30302;BME280;17111;52.130;5.028;2024-03-06T02:28:15;101987.47;;;15.76;55.12
30302;BME280;17111;52.130;5.028;2024-03-06T02:30:43;101995.47;;;15.76;54.31
30302;BME280;17111;52.130;5.028;2024-03-06T02:33:10;101984.88;;;15.75;55.27
30302;BME280;17111;52.130;5.028;2024-03-06T02:35:37;101988.41;;;15.75;55.01
30302;BME280;17111;52.130;5.028;2024-03-06T02:38:05;101990.22;;;15.75;54.29
30302;BME280;17111;52.130;5.028;2024-03-06T02:40:32;101981.34;;;15.74;54.67
30302;BME280;17111;52.130;5.028;2024-03-06T02:42:59;101983.19;;;15.74;54.91
30302;BME280;17111;52.130;5.028;2024-03-06T02:45:25;101989.38;;;15.74;55.26
30302;BME280;17111;52.130;5.028;2024-03-06T02:47:52;101993.03;;;15.73;54.52
30302;BME280;17111;52.130;5.028;2024-03-06T02:50:19;102000.19;;;15.73;54.93
30302;BME280;17111;52.130;5.028;2024-03-06T02:52:47;101991.31;;;15.72;54.17
30302;BME280;17111;52.130;5.028;2024-03-06T02:55:14;102002.00;;;15.72;54.96
30302;BME280;17111;52.130;5.028;2024-03-06T02:57:41;101990.56;;;15.70;54.24
30302;BME280;17111;52.130;5.028;2024-03-06T03:00:08;101995.81;;;15.72;54.28
30302;BME280;17111;52.130;5.028;2024-03-06T03:02:40;101997.59;;;15.71;54.73
30302;BME280;17111;52.130;5.028;2024-03-06T03:05:07;102000.28;;;15.71;54.94
30302;BME280;17111;52.130;5.028;2024-03-06T03:07:33;101998.56;;;15.70;55.05
30302;BME280;17111;52.130;5.028;2024-03-06T03:10:00;101993.22;;;15.70;54.99
30302;BME280;17111;52.130;5.028;2024-03-06T03:12:27;101999.44;;;15.71;55.15
30302;BME280;17111;52.130;5.028;2024-03-06T03:14:54;102003.91;;;15.70;55.02
30302;BME280;17111;52.130;5.028;2024-03-06T03:17:20;101992.38;;;15.70;53.98
30302;BME280;17111;52.130;5.028;2024-03-06T03:19:47;101996.88;;;15.69;54.13
30302;BME280;17111;52.130;5.028;2024-03-06T03:22:13;102003.19;;;15.68;55.06
30302;BME280;17111;52.130;5.028;2024-03-06T03:24:43;102002.22;;;15.69;54.40
30302;BME280;17111;52.130;5.028;2024-03-06T03:27:10;101999.56;;;15.69;54.51
30302;BME280;17111;52.130;5.028;2024-03-06T03:29:37;102007.56;;;15.69;54.42
30302;BME280;17111;52.130;5.028;2024-03-06T03:32:04;102010.25;;;15.69;54.56
30302;BME280;17111;52.130;5.028;2024-03-06T03:34:31;102011.22;;;15.68;55.04
30302;BME280;17111;52.130;5.028;2024-03-06T03:36:57;102011.22;;;15.68;55.22
30302;BME280;17111;52.130;5.028;2024-03-06T03:39:24;102011.22;;;15.68;54.83
30302;BME280;17111;52.130;5.028;2024-03-06T03:41:51;102014.81;;;15.67;54.38
30302;BME280;17111;52.130;5.028;2024-03-06T03:44:17;102015.72;;;15.68;55.03
30302;BME280;17111;52.130;5.028;2024-03-06T03:46:47;102016.56;;;15.68;55.02
30302;BME280;17111;52.130;5.028;2024-03-06T03:49:14;102011.22;;;15.68;54.85
30302;BME280;17111;52.130;5.028;2024-03-06T03:51:41;102011.22;;;15.68;54.18
30302;BME280;17111;52.130;5.028;2024-03-06T03:54:08;102021.91;;;15.68;54.42
30302;BME280;17111;52.130;5.028;2024-03-06T03:56:35;102014.81;;;15.67;54.40
30302;BME280;17111;52.130;5.028;2024-03-06T03:59:02;102016.56;;;15.68;54.38
30302;BME280;17111;52.130;5.028;2024-03-06T04:01:29;102021.91;;;15.68;55.06
30302;BME280;17111;52.130;5.028;2024-03-06T04:03:56;102020.16;;;15.67;54.44
30302;BME280;17111;52.130;5.028;2024-03-06T04:06:22;102021.06;;;15.68;54.96
30302;BME280;17111;52.130;5.028;2024-03-06T04:08:49;102021.06;;;15.68;55.05
30302;BME280;17111;52.130;5.028;2024-03-06T04:11:15;102009.47;;;15.67;54.13
30302;BME280;17111;52.130;5.028;2024-03-06T04:13:43;102019.31;;;15.67;54.54
30302;BME280;17111;52.130;5.028;2024-03-06T04:16:09;102018.47;;;15.66;54.92
30302;BME280;17111;52.130;5.028;2024-03-06T04:18:36;102020.28;;;15.66;54.32
30302;BME280;17111;52.130;5.028;2024-03-06T04:21:04;102029.16;;;15.66;54.88
30302;BME280;17111;52.130;5.028;2024-03-06T04:23:32;102022.13;;;15.65;55.16
30302;BME280;17111;52.130;5.028;2024-03-06T04:25:59;102025.63;;;15.66;54.10
30302;BME280;17111;52.130;5.028;2024-03-06T04:28:26;102020.38;;;15.64;54.36
30302;BME280;17111;52.130;5.028;2024-03-06T04:30:53;102023.94;;;15.65;55.00
30302;BME280;17111;52.130;5.028;2024-03-06T04:33:20;102033.66;;;15.66;54.15
30302;BME280;17111;52.130;5.028;2024-03-06T04:35:47;102030.97;;;15.66;55.06
30302;BME280;17111;52.130;5.028;2024-03-06T04:38:13;102038.22;;;15.64;54.17
30302;BME280;17111;52.130;5.028;2024-03-06T04:40:40;102039.09;;;15.64;54.69
30302;BME280;17111;52.130;5.028;2024-03-06T04:43:07;102038.22;;;15.64;54.56
30302;BME280;17111;52.130;5.028;2024-03-06T04:45:34;102046.22;;;15.64;54.52
30302;BME280;17111;52.130;5.028;2024-03-06T04:48:01;102051.56;;;15.64;54.55
30302;BME280;17111;52.130;5.028;2024-03-06T04:50:27;102048.16;;;15.62;54.99
30302;BME280;17111;52.130;5.028;2024-03-06T04:52:54;102065.06;;;15.62;55.07
30302;BME280;17111;52.130;5.028;2024-03-06T04:55:22;102058.00;;;15.61;55.07
30302;BME280;17111;52.130;5.028;2024-03-06T04:57:49;102055.34;;;15.61;54.31
30302;BME280;17111;52.130;5.028;2024-03-06T05:00:16;102052.66;;;15.61;54.14
30302;BME280;17111;52.130;5.028;2024-03-06T05:02:44;102061.66;;;15.60;54.56
30302;BME280;17111;52.130;5.028;2024-03-06T05:05:29;102065.25;;;15.59;54.32
30302;BME280;17111;52.130;5.028;2024-03-06T05:08:13;102073.41;;;15.58;54.43
30302;BME280;17111;52.130;5.028;2024-03-06T05:11:00;102067.00;;;15.60;54.79
30302;BME280;17111;52.130;5.028;2024-03-06T05:13:44;102063.56;;;15.58;54.16
30302;BME280;17111;52.130;5.028;2024-03-06T05:16:28;102060.25;;;15.54;55.41
30302;BME280;17111;52.130;5.028;2024-03-06T05:19:12;102061.00;;;15.57;54.63
30302;BME280;17111;52.130;5.028;2024-03-06T05:21:56;102063.13;;;15.51;54.41
30302;BME280;17111;52.130;5.028;2024-03-06T05:24:40;102067.41;;;15.54;54.34
30302;BME280;17111;52.130;5.028;2024-03-06T05:27:25;102072.97;;;15.51;55.22
30302;BME280;17111;52.130;5.028;2024-03-06T05:30:10;102074.91;;;15.49;54.39
30302;BME280;17111;52.130;5.028;2024-03-06T05:32:54;102076.81;;;15.47;55.30
30302;BME280;17111;52.130;5.028;2024-03-06T05:35:38;102089.44;;;15.45;54.92
30302;BME280;17111;52.130;5.028;2024-03-06T05:38:22;102095.84;;;15.42;55.34
30302;BME280;17111;52.130;5.028;2024-03-06T05:41:06;102094.66;;;15.46;54.28
30302;BME280;17111;52.130;5.028;2024-03-06T05:43:50;102103.00;;;15.42;54.65
30302;BME280;17111;52.130;5.028;2024-03-06T05:46:34;102114.34;;;15.45;54.64
30302;BME280;17111;52.130;5.028;2024-03-06T05:49:18;102106.53;;;15.42;54.93
30302;BME280;17111;52.130;5.028;2024-03-06T05:52:02;102115.50;;;15.41;55.02
30302;BME280;17111;52.130;5.028;2024-03-06T05:54:46;102118.28;;;15.40;54.72
30302;BME280;17111;52.130;5.028;2024-03-06T05:57:30;102122.75;;;15.39;55.32
30302;BME280;17111;52.130;5.028;2024-03-06T06:00:14;102131.00;;;15.36;55.50
30302;BME280;17111;52.130;5.028;2024-03-06T06:02:41;102128.09;;;15.39;54.99
30302;BME280;17111;52.130;5.028;2024-03-06T06:05:08;102133.56;;;15.38;54.89
30302;BME280;17111;52.130;5.028;2024-03-06T06:07:49;102138.03;;;15.37;54.62
30302;BME280;17111;52.130;5.028;2024-03-06T06:10:17;102139.00;;;15.36;54.67
30302;BME280;17111;52.130;5.028;2024-03-06T06:12:47;102142.63;;;15.35;54.68
30302;BME280;17111;52.130;5.028;2024-03-06T06:15:14;102137.28;;;15.35;54.82
30302;BME280;17111;52.130;5.028;2024-03-06T06:17:42;102138.38;;;15.33;55.44
30302;BME280;17111;52.130;5.028;2024-03-06T06:20:12;102151.72;;;15.33;55.48
30302;BME280;17111;52.130;5.028;2024-03-06T06:22:42;102154.38;;;15.33;55.49
30302;BME280;17111;52.130;5.028;2024-03-06T06:25:09;102160.59;;;15.33;55.45
30302;BME280;17111;52.130;5.028;2024-03-06T06:27:36;102167.75;;;15.33;54.70
30302;BME280;17111;52.130;5.028;2024-03-06T06:30:03;102170.41;;;15.33;54.52
30302;BME280;17111;52.130;5.028;2024-03-06T06:32:33;102166.00;;;15.31;55.25
30302;BME280;17111;52.130;5.028;2024-03-06T06:35:00;102174.03;;;15.31;54.41
30302;BME280;17111;52.130;5.028;2024-03-06T06:37:26;102182.94;;;15.32;54.76
30302;BME280;17111;52.130;5.028;2024-03-06T06:39:53;102182.03;;;15.31;55.19
30302;BME280;17111;52.130;5.028;2024-03-06T06:42:20;102197.13;;;15.33;55.29
30302;BME280;17111;52.130;5.028;2024-03-06T06:44:47;102196.28;;;15.32;54.74
30302;BME280;17111;52.130;5.028;2024-03-06T06:47:13;102201.63;;;15.32;55.05
30302;BME280;17111;52.130;5.028;2024-03-06T06:49:40;102196.28;;;15.32;54.80
30302;BME280;17111;52.130;5.028;2024-03-06T06:52:07;102197.97;;;15.33;55.08
30302;BME280;17111;52.130;5.028;2024-03-06T06:54:34;102200.66;;;15.33;55.11
30302;BME280;17111;52.130;5.028;2024-03-06T06:57:01;102200.66;;;15.33;55.62
30302;BME280;17111;52.130;5.028;2024-03-06T06:59:27;102210.28;;;15.36;55.32
30302;BME280;17111;52.130;5.028;2024-03-06T07:01:55;102207.69;;;15.34;55.38
30302;BME280;17111;52.130;5.028;2024-03-06T07:04:22;102216.56;;;15.35;55.52
30302;BME280;17111;52.130;5.028;2024-03-06T07:06:50;102215.63;;;15.36;55.16
30302;BME280;17111;52.130;5.028;2024-03-06T07:09:17;102223.66;;;15.36;55.48
30302;BME280;17111;52.130;5.028;2024-03-06T07:11:44;102228.09;;;15.35;55.29
30302;BME280;17111;52.130;5.028;2024-03-06T07:14:12;102228.09;;;15.35;54.69
30302;BME280;17111;52.130;5.028;2024-03-06T07:16:43;102237.94;;;15.35;55.44
30302;BME280;17111;52.130;5.028;2024-03-06T07:19:11;102238.78;;;15.35;54.93
30302;BME280;17111;52.130;5.028;2024-03-06T07:21:38;102243.28;;;15.35;55.27
30302;BME280;17111;52.130;5.028;2024-03-06T07:24:05;102245.03;;;15.36;54.46
30302;BME280;17111;52.130;5.028;2024-03-06T07:26:32;102248.53;;;15.36;55.16
30302;BME280;17111;52.130;5.028;2024-03-06T07:28:59;102246.72;;;15.37;55.29
30302;BME280;17111;52.130;5.028;2024-03-06T07:31:26;102247.56;;;15.37;55.20
30302;BME280;17111;52.130;5.028;2024-03-06T07:33:53;102253.78;;;15.38;54.51
30302;BME280;17111;52.130;5.028;2024-03-06T07:36:20;102263.50;;;15.39;54.97
30302;BME280;17111;52.130;5.028;2024-03-06T07:38:47;102255.41;;;15.40;55.21
30302;BME280;17111;52.130;5.028;2024-03-06T07:41:14;102256.13;;;15.42;55.27
30302;BME280;17111;52.130;5.028;2024-03-06T07:43:40;102258.72;;;15.44;54.26
30302;BME280;17111;52.130;5.028;2024-03-06T07:46:07;102267.47;;;15.46;54.30
30302;BME280;17111;52.130;5.028;2024-03-06T07:48:37;102261.09;;;15.48;54.51
30302;BME280;17111;52.130;5.028;2024-03-06T07:51:05;102264.50;;;15.50;54.46
30302;BME280;17111;52.130;5.028;2024-03-06T07:53:31;102274.13;;;15.53;55.20
30302;BME280;17111;52.130;5.028;2024-03-06T07:55:58;102279.28;;;15.56;54.96
30302;BME280;17111;52.130;5.028;2024-03-06T07:58:24;102272.13;;;15.57;54.86
30302;BME280;17111;52.130;5.028;2024-03-06T08:00:52;102276.38;;;15.59;54.91
30302;BME280;17111;52.130;5.028;2024-03-06T08:03:25;102279.81;;;15.61;54.57
30302;BME280;17111;52.130;5.028;2024-03-06T08:05:52;102278.84;;;15.62;54.14
30302;BME280;17111;52.130;5.028;2024-03-06T08:08:22;102284.09;;;15.64;54.37
30302;BME280;17111;52.130;5.028;2024-03-06T08:10:48;102290.22;;;15.66;54.73
30302;BME280;17111;52.130;5.028;2024-03-06T08:13:16;102294.63;;;15.67;54.37
30302;BME280;17111;52.130;5.028;2024-03-06T08:15:42;102293.69;;;15.68;54.51
30302;BME280;17111;52.130;5.028;2024-03-06T08:18:12;102292.59;;;15.70;55.00
30302;BME280;17111;52.130;5.028;2024-03-06T08:20:40;102292.50;;;15.72;53.91
30302;BME280;17111;52.130;5.028;2024-03-06T08:23:07;102297.75;;;15.73;54.70
30302;BME280;17111;52.130;5.028;2024-03-06T08:25:34;102301.06;;;15.77;54.50
30302;BME280;17111;52.130;5.028;2024-03-06T08:28:01;102307.16;;;15.79;54.30
30302;BME280;17111;52.130;5.028;2024-03-06T08:30:29;102310.47;;;15.83;54.17
30302;BME280;17111;52.130;5.028;2024-03-06T08:32:59;102311.13;;;15.86;53.84
30302;BME280;17111;52.130;5.028;2024-03-06T08:35:26;102313.50;;;15.91;54.32
30302;BME280;17111;52.130;5.028;2024-03-06T08:37:53;102309.66;;;15.95;53.82
30302;BME280;17111;52.130;5.028;2024-03-06T08:40:20;102318.97;;;16.02;53.86
30302;BME280;17111;52.130;5.028;2024-03-06T08:42:47;102316.84;;;16.07;54.00
30302;BME280;17111;52.130;5.028;2024-03-06T08:45:18;102311.94;;;16.14;54.30
30302;BME280;17111;52.130;5.028;2024-03-06T08:47:45;102326.69;;;16.19;54.48
30302;BME280;17111;52.130;5.028;2024-03-06T08:50:13;102328.09;;;16.25;53.89
30302;BME280;17111;52.130;5.028;2024-03-06T08:52:40;102317.09;;;16.29;53.69
30302;BME280;17111;52.130;5.028;2024-03-06T08:55:09;102325.66;;;16.35;53.50
30302;BME280;17111;52.130;5.028;2024-03-06T08:57:37;102335.09;;;16.40;53.74
30302;BME280;17111;52.130;5.028;2024-03-06T09:00:06;102332.09;;;16.45;53.34
30302;BME280;17111;52.130;5.028;2024-03-06T09:02:37;102335.28;;;16.50;53.71
30302;BME280;17111;52.130;5.028;2024-03-06T09:05:09;102343.00;;;16.54;53.48
30302;BME280;17111;52.130;5.028;2024-03-06T09:07:37;102345.34;;;16.59;53.56
30302;BME280;17111;52.130;5.028;2024-03-06T09:10:07;102344.16;;;16.63;53.56
30302;BME280;17111;52.130;5.028;2024-03-06T09:12:35;102348.44;;;16.66;53.61
30302;BME280;17111;52.130;5.028;2024-03-06T09:15:02;102350.94;;;16.69;53.05
30302;BME280;17111;52.130;5.028;2024-03-06T09:17:30;102352.50;;;16.71;53.44
30302;BME280;17111;52.130;5.028;2024-03-06T09:19:56;102360.38;;;16.74;53.08
30302;BME280;17111;52.130;5.028;2024-03-06T09:22:39;102354.81;;;16.77;53.44
30302;BME280;17111;52.130;5.028;2024-03-06T09:25:06;102366.16;;;16.81;52.82
30302;BME280;17111;52.130;5.028;2024-03-06T09:27:33;102366.03;;;16.83;52.37
30302;BME280;17111;52.130;5.028;2024-03-06T09:30:00;102368.50;;;16.86;52.61
30302;BME280;17111;52.130;5.028;2024-03-06T09:32:27;102363.88;;;16.88;53.05
30302;BME280;17111;52.130;5.028;2024-03-06T09:34:54;102372.69;;;16.90;52.50
30302;BME280;17111;52.130;5.028;2024-03-06T09:37:20;102375.22;;;16.91;52.88
30302;BME280;17111;52.130;5.028;2024-03-06T09:39:47;102382.22;;;16.94;52.88
30302;BME280;17111;52.130;5.028;2024-03-06T09:42:16;102382.00;;;16.97;52.98
30302;BME280;17111;52.130;5.028;2024-03-06T09:44:44;102378.22;;;16.99;53.15
30302;BME280;17111;52.130;5.028;2024-03-06T09:47:13;102382.50;;;17.02;52.89
30302;BME280;17111;52.130;5.028;2024-03-06T09:49:42;102385.91;;;17.04;52.39
30302;BME280;17111;52.130;5.028;2024-03-06T09:52:10;102396.56;;;17.06;52.76
30302;BME280;17111;52.130;5.028;2024-03-06T09:54:37;102390.97;;;17.09;52.40
30302;BME280;17111;52.130;5.028;2024-03-06T09:57:08;102387.31;;;17.10;52.73
30302;BME280;17111;52.130;5.028;2024-03-06T09:59:34;102400.38;;;17.14;52.37
30302;BME280;17111;52.130;5.028;2024-03-06T10:02:08;102400.19;;;17.17;52.91
30302;BME280;17111;52.130;5.028;2024-03-06T10:04:39;102404.34;;;17.21;53.29
30302;BME280;17111;52.130;5.028;2024-03-06T10:07:06;102402.19;;;17.26;52.78
30302;BME280;17111;52.130;5.028;2024-03-06T10:09:34;102408.06;;;17.32;52.44
30302;BME280;17111;52.130;5.028;2024-03-06T10:12:00;102407.63;;;17.38;52.72
30302;BME280;17111;52.130;5.028;2024-03-06T10:14:32;102400.09;;;17.43;52.57
30302;BME280;17111;52.130;5.028;2024-03-06T10:17:00;102404.16;;;17.48;52.38
30302;BME280;17111;52.130;5.028;2024-03-06T10:19:28;102411.63;;;17.56;52.50
30302;BME280;17111;52.130;5.028;2024-03-06T10:21:56;102413.88;;;17.62;52.41
30302;BME280;17111;52.130;5.028;2024-03-06T10:24:26;102420.59;;;17.68;52.22
30302;BME280;17111;52.130;5.028;2024-03-06T10:26:57;102420.16;;;17.74;52.32
30302;BME280;17111;52.130;5.028;2024-03-06T10:29:29;102416.19;;;17.80;52.21
30302;BME280;17111;52.130;5.028;2024-03-06T10:31:59;102414.03;;;17.85;52.04
30302;BME280;17111;52.130;5.028;2024-03-06T10:34:28;102414.56;;;17.90;52.15
30302;BME280;17111;52.130;5.028;2024-03-06T10:37:02;102420.31;;;17.96;51.89
30302;BME280;17111;52.130;5.028;2024-03-06T10:39:36;102417.31;;;18.01;52.12
30302;BME280;17111;52.130;5.028;2024-03-06T10:42:08;102424.16;;;18.05;52.17
30302;BME280;17111;52.130;5.028;2024-03-06T10:44:38;102421.13;;;18.10;51.96
30302;BME280;17111;52.130;5.028;2024-03-06T10:47:09;102413.56;;;18.15;51.72
30302;BME280;17111;52.130;5.028;2024-03-06T10:49:37;102421.38;;;18.18;51.67
30302;BME280;17111;52.130;5.028;2024-03-06T10:52:05;102422.88;;;18.22;52.22
30302;BME280;17111;52.130;5.028;2024-03-06T10:54:35;102426.19;;;18.25;52.11
30302;BME280;17111;52.130;5.028;2024-03-06T10:57:05;102430.34;;;18.30;51.99
30302;BME280;17111;52.130;5.028;2024-03-06T10:59:32;102432.78;;;18.33;51.85
30302;BME280;17111;52.130;5.028;2024-03-06T11:02:01;102429.88;;;18.36;51.60
30302;BME280;17111;52.130;5.028;2024-03-06T11:04:29;102430.63;;;18.38;51.97
30302;BME280;17111;52.130;5.028;2024-03-06T11:06:57;102428.66;;;18.40;51.44
30302;BME280;17111;52.130;5.028;2024-03-06T11:09:35;102436.59;;;18.41;51.72
30302;BME280;17111;52.130;5.028;2024-03-06T11:12:02;102436.47;;;18.43;51.75
30302;BME280;17111;52.130;5.028;2024-03-06T11:14:31;102430.97;;;18.44;51.83
30302;BME280;17111;52.130;5.028;2024-03-06T11:17:06;102437.19;;;18.45;51.50
30302;BME280;17111;52.130;5.028;2024-03-06T11:28:18;102448.47;;;18.50;52.10
30302;BME280;17111;52.130;5.028;2024-03-06T11:30:55;102439.44;;;18.51;51.68
30302;BME280;17111;52.130;5.028;2024-03-06T11:33:22;102443.81;;;18.52;51.62
30302;BME280;17111;52.130;5.028;2024-03-06T11:36:15;102443.81;;;18.52;51.79
30302;BME280;17111;52.130;5.028;2024-03-06T11:38:47;102449.94;;;18.54;51.56
30302;BME280;17111;52.130;5.028;2024-03-06T11:41:14;102449.59;;;18.59;51.51
30302;BME280;17111;52.130;5.028;2024-03-06T11:43:44;102453.25;;;18.58;51.83
30302;BME280;17111;52.130;5.028;2024-03-06T11:46:10;102451.53;;;18.57;51.30
30302;BME280;17111;52.130;5.028;2024-03-06T11:48:37;102452.38;;;18.57;52.12
30302;BME280;17111;52.130;5.028;2024-03-06T11:51:05;102457.75;;;18.57;51.57
30302;BME280;17111;52.130;5.028;2024-03-06T11:53:35;102455.94;;;18.58;51.68
30302;BME280;17111;52.130;5.028;2024-03-06T11:56:05;102460.44;;;18.57;51.88
30302;BME280;17111;52.130;5.028;2024-03-06T11:58:34;102455.81;;;18.59;51.69
30302;BME280;17111;52.130;5.028;2024-03-06T12:01:01;102455.81;;;18.59;51.99
30302;BME280;17111;52.130;5.028;2024-03-06T12:03:28;102460.09;;;18.62;52.00
30302;BME280;17111;52.130;5.028;2024-03-06T12:05:54;102459.97;;;18.63;51.95
30302;BME280;17111;52.130;5.028;2024-03-06T12:08:21;102465.22;;;18.65;51.78
30302;BME280;17111;52.130;5.028;2024-03-06T12:10:48;102462.53;;;18.65;51.49
30302;BME280;17111;52.130;5.028;2024-03-06T12:13:14;102466.94;;;18.66;51.57
30302;BME280;17111;52.130;5.028;2024-03-06T12:15:44;102464.13;;;18.67;51.37
30302;BME280;17111;52.130;5.028;2024-03-06T12:18:11;102460.47;;;18.68;51.52
30302;BME280;17111;52.130;5.028;2024-03-06T12:20:42;102465.75;;;18.70;51.74
30302;BME280;17111;52.130;5.028;2024-03-06T12:23:30;102463.94;;;18.70;51.78
30302;BME280;17111;52.130;5.028;2024-03-06T12:26:07;102460.25;;;18.71;51.65
30302;BME280;17111;52.130;5.028;2024-03-06T12:28:37;102460.88;;;18.75;51.60
30302;BME280;17111;52.130;5.028;2024-03-06T12:31:04;102460.75;;;18.77;51.64
30302;BME280;17111;52.130;5.028;2024-03-06T12:33:32;102460.53;;;18.80;51.23
30302;BME280;17111;52.130;5.028;2024-03-06T12:36:04;102462.22;;;18.81;51.35
30302;BME280;17111;52.130;5.028;2024-03-06T12:38:32;102460.28;;;18.83;51.91
30302;BME280;17111;52.130;5.028;2024-03-06T12:40:59;102465.53;;;18.84;51.64
30302;BME280;17111;52.130;5.028;2024-03-06T12:43:26;102462.75;;;18.86;51.61
30302;BME280;17111;52.130;5.028;2024-03-06T12:45:55;102454.56;;;18.87;51.79
30302;BME280;17111;52.130;5.028;2024-03-06T12:48:24;102457.97;;;18.89;51.99
30302;BME280;17111;52.130;5.028;2024-03-06T12:50:52;102457.88;;;18.91;51.30
30302;BME280;17111;52.130;5.028;2024-03-06T12:53:21;102463.00;;;18.94;51.47
30302;BME280;17111;52.130;5.028;2024-03-06T12:55:48;102464.72;;;18.95;52.06
30302;BME280;17111;52.130;5.028;2024-03-06T12:58:15;102459.19;;;18.96;51.85
30302;BME280;17111;52.130;5.028;2024-03-06T13:00:42;102455.44;;;18.99;52.02
30302;BME280;17111;52.130;5.028;2024-03-06T13:03:08;102455.28;;;19.01;52.13
30302;BME280;17111;52.130;5.028;2024-03-06T13:05:36;102463.25;;;19.02;51.78
30302;BME280;17111;52.130;5.028;2024-03-06T13:08:03;102462.28;;;19.03;52.24